sensor_id;sensor_type;location;lat;lon;timestamp;P1;durP1;ratioP1;P2;durP2;ratioP2
45382;SDS011;42455;51.660;5.824;2023-06-10T00:02:21;7.0;;;6.0;;
45382;SDS011;42455;51.660;5.824;2023-06-10T00:07:28;7.0;;;6.0;;
45382;SDS011;42455;51.660;5.824;2023-06-10T00:12:34;7.5;;;7.0;;
45382;SDS011;42455;51.660;5.824;2023-06-10T00:17:40;8.0;;;7.0;;
45382;SDS011;42455;51.660;5.824;2023-06-10T00:22:46;8.0;;;7.0;;
45382;SDS011;42455;51.660;5.824;2023-06-10T00:27:53;7.0;;;7.0;;
45382;SDS011;42455;51.660;5.824;2023-06-10T00:32:59;8.0;;;7.0;;
45382;SDS011;42455;51.660;5.824;2023-06-10T00:38:05;8.0;;;7.0;;
45382;SDS011;42455;51.660;5.824;2023-06-10T00:43:11;8.0;;;7.0;;
45382;SDS011;42455;51.660;5.824;2023-06-10T00:48:17;8.0;;;8.0;;
45382;SDS011;42455;51.660;5.824;2023-06-10T00:53:23;8.0;;;8.0;;
45382;SDS011;42455;51.660;5.824;2023-06-10T00:58:30;9.0;;;8.0;;
45382;SDS011;42455;51.660;5.824;2023-06-10T01:03:36;9.0;;;8.0;;
45382;SDS011;42455;51.660;5.824;2023-06-10T01:08:46;8.0;;;8.0;;
45382;SDS011;42455;51.660;5.824;2023-06-10T01:13:48;9.0;;;8.0;;
45382;SDS011;42455;51.660;5.824;2023-06-10T01:18:54;9.5;;;9.0;;
45382;SDS011;42455;51.660;5.824;2023-06-10T01:24:01;10.0;;;9.0;;
45382;SDS011;42455;51.660;5.824;2023-06-10T01:29:11;9.0;;;9.0;;
45382;SDS011;42455;51.660;5.824;2023-06-10T01:34:15;10.0;;;9.0;;
45382;SDS011;42455;51.660;5.824;2023-06-10T01:39:20;10.0;;;9.5;;
45382;SDS011;42455;51.660;5.824;2023-06-10T01:44:26;10.0;;;9.0;;
45382;SDS011;42455;51.660;5.824;2023-06-10T01:49:32;10.0;;;9.0;;
45382;SDS011;42455;51.660;5.824;2023-06-10T01:54:38;11.0;;;10.0;;
45382;SDS011;42455;51.660;5.824;2023-06-10T01:59:44;11.0;;;10.0;;
45382;SDS011;42455;51.660;5.824;2023-06-10T02:04:50;10.0;;;10.0;;
45382;SDS011;42455;51.660;5.824;2023-06-10T02:09:57;11.0;;;9.5;;
45382;SDS011;42455;51.660;5.824;2023-06-10T02:15:03;10.0;;;9.0;;
45382;SDS011;42455;51.660;5.824;2023-06-10T02:20:10;10.0;;;9.0;;
45382;SDS011;42455;51.660;5.824;2023-06-10T02:25:15;11.0;;;10.0;;
45382;SDS011;42455;51.660;5.824;2023-06-10T02:30:21;11.0;;;10.0;;
45382;SDS011;42455;51.660;5.824;2023-06-10T02:35:28;10.0;;;9.0;;
45382;SDS011;42455;51.660;5.824;2023-06-10T02:40:34;10.0;;;9.0;;
45382;SDS011;42455;51.660;5.824;2023-06-10T02:45:40;10.0;;;9.0;;
45382;SDS011;42455;51.660;5.824;2023-06-10T02:50:46;10.0;;;9.0;;
45382;SDS011;42455;51.660;5.824;2023-06-10T02:55:53;11.0;;;10.0;;
45382;SDS011;42455;51.660;5.824;2023-06-10T03:00:59;11.0;;;10.0;;
45382;SDS011;42455;51.660;5.824;2023-06-10T03:06:05;11.0;;;10.0;;
45382;SDS011;42455;51.660;5.824;2023-06-10T03:11:11;10.0;;;9.0;;
45382;SDS011;42455;51.660;5.824;2023-06-10T03:16:17;10.0;;;9.0;;
45382;SDS011;42455;51.660;5.824;2023-06-10T03:21:23;11.0;;;10.0;;
45382;SDS011;42455;51.660;5.824;2023-06-10T03:26:30;11.0;;;10.0;;
45382;SDS011;42455;51.660;5.824;2023-06-10T03:31:36;10.0;;;9.0;;
45382;SDS011;42455;51.660;5.824;2023-06-10T03:36:42;10.0;;;9.0;;
45382;SDS011;42455;51.660;5.824;2023-06-10T03:41:48;9.0;;;8.0;;
45382;SDS011;42455;51.660;5.824;2023-06-10T03:46:55;9.0;;;8.0;;
45382;SDS011;42455;51.660;5.824;2023-06-10T03:52:01;9.5;;;8.0;;
45382;SDS011;42455;51.660;5.824;2023-06-10T03:57:07;9.0;;;8.0;;
45382;SDS011;42455;51.660;5.824;2023-06-10T04:02:13;10.0;;;9.0;;
45382;SDS011;42455;51.660;5.824;2023-06-10T04:07:19;9.0;;;8.0;;
45382;SDS011;42455;51.660;5.824;2023-06-10T04:12:26;9.0;;;8.0;;
45382;SDS011;42455;51.660;5.824;2023-06-10T04:17:32;9.0;;;8.0;;
45382;SDS011;42455;51.660;5.824;2023-06-10T04:22:38;9.0;;;8.0;;
45382;SDS011;42455;51.660;5.824;2023-06-10T04:27:44;9.0;;;8.0;;
45382;SDS011;42455;51.660;5.824;2023-06-10T04:32:50;9.0;;;8.0;;
45382;SDS011;42455;51.660;5.824;2023-06-10T04:37:57;8.0;;;7.0;;
45382;SDS011;42455;51.660;5.824;2023-06-10T04:43:03;8.5;;;8.0;;
45382;SDS011;42455;51.660;5.824;2023-06-10T04:48:09;8.0;;;7.0;;
45382;SDS011;42455;51.660;5.824;2023-06-10T04:58:22;8.5;;;8.0;;
45382;SDS011;42455;51.660;5.824;2023-06-10T05:03:27;9.0;;;8.0;;
45382;SDS011;42455;51.660;5.824;2023-06-10T05:08:33;9.0;;;8.0;;
45382;SDS011;42455;51.660;5.824;2023-06-10T05:13:41;8.0;;;8.0;;
45382;SDS011;42455;51.660;5.824;2023-06-10T05:18:45;9.0;;;8.0;;
45382;SDS011;42455;51.660;5.824;2023-06-10T05:23:52;10.0;;;8.0;;
45382;SDS011;42455;51.660;5.824;2023-06-10T05:28:58;8.0;;;7.0;;
45382;SDS011;42455;51.660;5.824;2023-06-10T05:34:04;8.0;;;7.0;;
45382;SDS011;42455;51.660;5.824;2023-06-10T05:39:10;8.0;;;7.0;;
45382;SDS011;42455;51.660;5.824;2023-06-10T05:44:16;8.0;;;7.0;;
45382;SDS011;42455;51.660;5.824;2023-06-10T05:49:23;8.0;;;7.0;;
45382;SDS011;42455;51.660;5.824;2023-06-10T05:54:29;8.0;;;7.0;;
45382;SDS011;42455;51.660;5.824;2023-06-10T05:59:35;9.0;;;7.0;;
45382;SDS011;42455;51.660;5.824;2023-06-10T06:04:41;8.0;;;7.0;;
45382;SDS011;42455;51.660;5.824;2023-06-10T06:09:47;7.0;;;6.0;;
45382;SDS011;42455;51.660;5.824;2023-06-10T06:14:54;7.0;;;7.0;;
45382;SDS011;42455;51.660;5.824;2023-06-10T06:20:00;7.0;;;7.0;;
45382;SDS011;42455;51.660;5.824;2023-06-10T06:25:06;7.0;;;6.0;;
45382;SDS011;42455;51.660;5.824;2023-06-10T06:30:12;7.0;;;6.0;;
45382;SDS011;42455;51.660;5.824;2023-06-10T06:40:25;7.5;;;6.0;;
45382;SDS011;42455;51.660;5.824;2023-06-10T06:45:31;7.0;;;6.0;;
45382;SDS011;42455;51.660;5.824;2023-06-10T06:55:43;6.0;;;6.0;;
45382;SDS011;42455;51.660;5.824;2023-06-10T07:00:50;6.0;;;6.0;;
45382;SDS011;42455;51.660;5.824;2023-06-10T07:05:56;6.0;;;6.0;;
45382;SDS011;42455;51.660;5.824;2023-06-10T07:11:02;7.0;;;6.0;;
45382;SDS011;42455;51.660;5.824;2023-06-10T07:16:08;6.0;;;6.0;;
45382;SDS011;42455;51.660;5.824;2023-06-10T07:21:14;7.0;;;6.0;;
45382;SDS011;42455;51.660;5.824;2023-06-10T07:26:22;7.0;;;6.0;;
45382;SDS011;42455;51.660;5.824;2023-06-10T07:31:27;8.0;;;6.0;;
45382;SDS011;42455;51.660;5.824;2023-06-10T07:36:33;7.0;;;6.0;;
45382;SDS011;42455;51.660;5.824;2023-06-10T07:41:39;6.0;;;6.0;;
45382;SDS011;42455;51.660;5.824;2023-06-10T07:46:45;6.0;;;5.0;;
45382;SDS011;42455;51.660;5.824;2023-06-10T07:51:53;6.0;;;5.0;;
45382;SDS011;42455;51.660;5.824;2023-06-10T07:56:58;6.0;;;6.0;;
45382;SDS011;42455;51.660;5.824;2023-06-10T08:02:04;6.0;;;6.0;;
45382;SDS011;42455;51.660;5.824;2023-06-10T08:07:10;6.0;;;6.0;;
45382;SDS011;42455;51.660;5.824;2023-06-10T08:12:16;6.0;;;6.0;;
45382;SDS011;42455;51.660;5.824;2023-06-10T08:17:23;6.0;;;5.0;;
45382;SDS011;42455;51.660;5.824;2023-06-10T08:22:29;6.0;;;6.0;;
45382;SDS011;42455;51.660;5.824;2023-06-10T08:27:35;6.0;;;6.0;;
45382;SDS011;42455;51.660;5.824;2023-06-10T08:32:41;6.5;;;5.5;;
45382;SDS011;42455;51.660;5.824;2023-06-10T08:37:48;5.5;;;5.0;;
45382;SDS011;42455;51.660;5.824;2023-06-10T08:43:05;6.0;;;5.0;;
45382;SDS011;42455;51.660;5.824;2023-06-10T08:48:00;6.0;;;5.0;;
45382;SDS011;42455;51.660;5.824;2023-06-10T08:53:07;7.0;;;5.0;;
45382;SDS011;42455;51.660;5.824;2023-06-10T08:58:13;7.0;;;6.0;;
45382;SDS011;42455;51.660;5.824;2023-06-10T09:03:19;6.0;;;5.0;;
45382;SDS011;42455;51.660;5.824;2023-06-10T09:08:25;6.0;;;5.0;;
45382;SDS011;42455;51.660;5.824;2023-06-10T09:13:31;6.0;;;5.0;;
45382;SDS011;42455;51.660;5.824;2023-06-10T09:18:37;7.0;;;5.0;;
45382;SDS011;42455;51.660;5.824;2023-06-10T09:23:44;6.0;;;5.0;;
45382;SDS011;42455;51.660;5.824;2023-06-10T09:28:50;7.0;;;5.0;;
45382;SDS011;42455;51.660;5.824;2023-06-10T09:33:56;6.0;;;5.0;;
45382;SDS011;42455;51.660;5.824;2023-06-10T09:39:04;6.0;;;5.0;;
45382;SDS011;42455;51.660;5.824;2023-06-10T09:44:11;5.0;;;5.0;;
45382;SDS011;42455;51.660;5.824;2023-06-10T09:49:15;6.0;;;5.0;;
45382;SDS011;42455;51.660;5.824;2023-06-10T09:54:21;7.0;;;6.0;;
45382;SDS011;42455;51.660;5.824;2023-06-10T09:59:28;6.0;;;5.0;;
45382;SDS011;42455;51.660;5.824;2023-06-10T10:04:34;6.0;;;6.0;;
45382;SDS011;42455;51.660;5.824;2023-06-10T10:09:40;6.0;;;5.0;;
45382;SDS011;42455;51.660;5.824;2023-06-10T10:14:46;6.0;;;5.0;;
45382;SDS011;42455;51.660;5.824;2023-06-10T10:19:53;6.0;;;5.0;;
45382;SDS011;42455;51.660;5.824;2023-06-10T10:24:59;6.0;;;5.0;;
45382;SDS011;42455;51.660;5.824;2023-06-10T10:30:05;5.0;;;5.0;;
45382;SDS011;42455;51.660;5.824;2023-06-10T10:35:11;6.0;;;5.0;;
45382;SDS011;42455;51.660;5.824;2023-06-10T10:40:16;7.0;;;6.0;;
45382;SDS011;42455;51.660;5.824;2023-06-10T10:45:22;5.0;;;5.0;;
45382;SDS011;42455;51.660;5.824;2023-06-10T10:50:28;6.0;;;5.0;;
45382;SDS011;42455;51.660;5.824;2023-06-10T10:55:34;5.5;;;5.0;;
45382;SDS011;42455;51.660;5.824;2023-06-10T11:00:43;5.0;;;5.0;;
45382;SDS011;42455;51.660;5.824;2023-06-10T11:05:47;6.0;;;5.0;;
45382;SDS011;42455;51.660;5.824;2023-06-10T11:10:52;5.0;;;5.0;;
45382;SDS011;42455;51.660;5.824;2023-06-10T11:15:58;5.5;;;5.0;;
45382;SDS011;42455;51.660;5.824;2023-06-10T11:21:05;6.0;;;5.0;;
45382;SDS011;42455;51.660;5.824;2023-06-10T11:26:31;5.0;;;5.0;;
45382;SDS011;42455;51.660;5.824;2023-06-10T11:31:20;11.0;;;10.0;;
45382;SDS011;42455;51.660;5.824;2023-06-10T11:36:24;6.5;;;5.0;;
45382;SDS011;42455;51.660;5.824;2023-06-10T11:41:30;6.0;;;5.0;;
45382;SDS011;42455;51.660;5.824;2023-06-10T11:46:36;5.0;;;5.0;;
45382;SDS011;42455;51.660;5.824;2023-06-10T11:51:42;5.0;;;5.0;;
45382;SDS011;42455;51.660;5.824;2023-06-10T11:56:48;6.0;;;5.0;;
45382;SDS011;42455;51.660;5.824;2023-06-10T12:01:54;5.0;;;5.0;;
45382;SDS011;42455;51.660;5.824;2023-06-10T12:07:00;5.0;;;5.0;;
45382;SDS011;42455;51.660;5.824;2023-06-10T12:12:07;6.0;;;5.0;;
45382;SDS011;42455;51.660;5.824;2023-06-10T12:17:13;5.0;;;5.0;;
45382;SDS011;42455;51.660;5.824;2023-06-10T12:22:19;5.0;;;5.0;;
45382;SDS011;42455;51.660;5.824;2023-06-10T12:27:25;6.0;;;5.0;;
45382;SDS011;42455;51.660;5.824;2023-06-10T12:32:35;6.0;;;5.0;;
45382;SDS011;42455;51.660;5.824;2023-06-10T12:37:38;6.0;;;5.0;;
45382;SDS011;42455;51.660;5.824;2023-06-10T12:42:44;5.0;;;5.0;;
45382;SDS011;42455;51.660;5.824;2023-06-10T12:47:50;6.0;;;5.0;;
45382;SDS011;42455;51.660;5.824;2023-06-10T12:52:56;6.0;;;5.0;;
45382;SDS011;42455;51.660;5.824;2023-06-10T12:58:02;6.0;;;5.0;;
45382;SDS011;42455;51.660;5.824;2023-06-10T13:03:09;6.0;;;5.0;;
45382;SDS011;42455;51.660;5.824;2023-06-10T13:08:15;5.0;;;5.0;;
45382;SDS011;42455;51.660;5.824;2023-06-10T13:13:21;5.0;;;5.0;;
45382;SDS011;42455;51.660;5.824;2023-06-10T13:18:27;5.0;;;5.0;;
45382;SDS011;42455;51.660;5.824;2023-06-10T13:23:33;5.0;;;5.0;;
45382;SDS011;42455;51.660;5.824;2023-06-10T13:28:40;5.0;;;5.0;;
45382;SDS011;42455;51.660;5.824;2023-06-10T13:33:46;5.0;;;5.0;;
45382;SDS011;42455;51.660;5.824;2023-06-10T13:38:52;5.0;;;5.0;;
45382;SDS011;42455;51.660;5.824;2023-06-10T13:43:58;5.0;;;5.0;;
45382;SDS011;42455;51.660;5.824;2023-06-10T13:49:05;5.0;;;5.0;;
45382;SDS011;42455;51.660;5.824;2023-06-10T13:54:11;5.0;;;5.0;;
45382;SDS011;42455;51.660;5.824;2023-06-10T13:59:18;5.0;;;5.0;;
45382;SDS011;42455;51.660;5.824;2023-06-10T14:04:23;5.0;;;5.0;;
45382;SDS011;42455;51.660;5.824;2023-06-10T14:09:29;5.0;;;5.0;;
45382;SDS011;42455;51.660;5.824;2023-06-10T14:14:36;5.0;;;5.0;;
45382;SDS011;42455;51.660;5.824;2023-06-10T14:19:42;5.0;;;5.0;;
45382;SDS011;42455;51.660;5.824;2023-06-10T14:24:48;5.0;;;5.0;;
45382;SDS011;42455;51.660;5.824;2023-06-10T14:29:54;5.0;;;5.0;;
45382;SDS011;42455;51.660;5.824;2023-06-10T14:35:01;5.0;;;5.0;;
45382;SDS011;42455;51.660;5.824;2023-06-10T14:40:07;5.0;;;5.0;;
45382;SDS011;42455;51.660;5.824;2023-06-10T14:45:13;6.0;;;5.0;;
45382;SDS011;42455;51.660;5.824;2023-06-10T14:50:19;6.0;;;5.0;;
45382;SDS011;42455;51.660;5.824;2023-06-10T14:55:25;5.0;;;5.0;;
45382;SDS011;42455;51.660;5.824;2023-06-10T15:00:31;6.0;;;5.0;;
45382;SDS011;42455;51.660;5.824;2023-06-10T15:05:38;5.0;;;5.0;;
45382;SDS011;42455;51.660;5.824;2023-06-10T15:10:44;5.0;;;5.0;;
45382;SDS011;42455;51.660;5.824;2023-06-10T15:15:50;5.0;;;5.0;;
45382;SDS011;42455;51.660;5.824;2023-06-10T15:20:56;5.0;;;5.0;;
45382;SDS011;42455;51.660;5.824;2023-06-10T15:26:03;6.0;;;5.0;;
45382;SDS011;42455;51.660;5.824;2023-06-10T15:31:09;6.0;;;5.0;;
45382;SDS011;42455;51.660;5.824;2023-06-10T15:36:15;5.0;;;5.0;;
45382;SDS011;42455;51.660;5.824;2023-06-10T15:41:21;5.0;;;5.0;;
45382;SDS011;42455;51.660;5.824;2023-06-10T15:46:28;5.0;;;5.0;;
45382;SDS011;42455;51.660;5.824;2023-06-10T15:51:34;6.0;;;5.0;;
45382;SDS011;42455;51.660;5.824;2023-06-10T15:56:40;6.0;;;5.0;;
45382;SDS011;42455;51.660;5.824;2023-06-10T16:01:46;6.0;;;5.0;;
45382;SDS011;42455;51.660;5.824;2023-06-10T16:06:52;6.0;;;5.0;;
45382;SDS011;42455;51.660;5.824;2023-06-10T16:11:59;5.5;;;5.0;;
45382;SDS011;42455;51.660;5.824;2023-06-10T16:17:05;5.0;;;5.0;;
45382;SDS011;42455;51.660;5.824;2023-06-10T16:22:11;6.0;;;5.0;;
45382;SDS011;42455;51.660;5.824;2023-06-10T16:27:17;6.0;;;5.0;;
45382;SDS011;42455;51.660;5.824;2023-06-10T16:32:22;6.0;;;5.0;;
45382;SDS011;42455;51.660;5.824;2023-06-10T16:37:29;5.0;;;5.0;;
45382;SDS011;42455;51.660;5.824;2023-06-10T16:42:35;6.0;;;5.0;;
45382;SDS011;42455;51.660;5.824;2023-06-10T16:47:41;7.0;;;5.0;;
45382;SDS011;42455;51.660;5.824;2023-06-10T16:52:47;5.0;;;5.0;;
45382;SDS011;42455;51.660;5.824;2023-06-10T16:57:53;6.0;;;5.0;;
45382;SDS011;42455;51.660;5.824;2023-06-10T17:03:00;6.0;;;5.0;;
45382;SDS011;42455;51.660;5.824;2023-06-10T17:08:06;5.5;;;5.0;;
45382;SDS011;42455;51.660;5.824;2023-06-10T17:13:12;5.5;;;5.0;;
45382;SDS011;42455;51.660;5.824;2023-06-10T17:18:18;6.0;;;5.0;;
45382;SDS011;42455;51.660;5.824;2023-06-10T17:23:25;5.0;;;5.0;;
45382;SDS011;42455;51.660;5.824;2023-06-10T17:28:31;6.0;;;5.0;;
45382;SDS011;42455;51.660;5.824;2023-06-10T17:33:37;6.0;;;5.0;;
45382;SDS011;42455;51.660;5.824;2023-06-10T17:38:43;6.0;;;5.0;;
45382;SDS011;42455;51.660;5.824;2023-06-10T17:43:49;6.0;;;5.0;;
45382;SDS011;42455;51.660;5.824;2023-06-10T17:48:56;6.0;;;5.0;;
45382;SDS011;42455;51.660;5.824;2023-06-10T17:54:02;5.0;;;5.0;;
45382;SDS011;42455;51.660;5.824;2023-06-10T17:59:08;6.0;;;5.0;;
45382;SDS011;42455;51.660;5.824;2023-06-10T18:04:14;6.0;;;5.0;;
45382;SDS011;42455;51.660;5.824;2023-06-10T18:09:21;5.5;;;5.0;;
45382;SDS011;42455;51.660;5.824;2023-06-10T18:14:27;5.0;;;5.0;;
45382;SDS011;42455;51.660;5.824;2023-06-10T18:19:33;5.5;;;5.0;;
45382;SDS011;42455;51.660;5.824;2023-06-10T18:24:39;5.0;;;5.0;;
45382;SDS011;42455;51.660;5.824;2023-06-10T18:29:45;6.0;;;5.0;;
45382;SDS011;42455;51.660;5.824;2023-06-10T18:34:51;8.0;;;5.0;;
45382;SDS011;42455;51.660;5.824;2023-06-10T18:39:58;6.0;;;5.0;;
45382;SDS011;42455;51.660;5.824;2023-06-10T18:45:04;6.0;;;5.0;;
45382;SDS011;42455;51.660;5.824;2023-06-10T18:50:10;6.0;;;5.0;;
45382;SDS011;42455;51.660;5.824;2023-06-10T18:55:16;6.0;;;5.0;;
45382;SDS011;42455;51.660;5.824;2023-06-10T19:00:22;6.0;;;5.0;;
45382;SDS011;42455;51.660;5.824;2023-06-10T19:05:29;6.0;;;5.0;;
45382;SDS011;42455;51.660;5.824;2023-06-10T19:10:35;6.0;;;5.0;;
45382;SDS011;42455;51.660;5.824;2023-06-10T19:15:41;6.0;;;5.0;;
45382;SDS011;42455;51.660;5.824;2023-06-10T19:20:47;6.0;;;5.0;;
45382;SDS011;42455;51.660;5.824;2023-06-10T19:25:54;6.0;;;5.0;;
45382;SDS011;42455;51.660;5.824;2023-06-10T19:31:00;6.0;;;5.0;;
45382;SDS011;42455;51.660;5.824;2023-06-10T19:36:06;6.0;;;5.0;;
45382;SDS011;42455;51.660;5.824;2023-06-10T19:41:12;7.0;;;5.0;;
45382;SDS011;42455;51.660;5.824;2023-06-10T19:46:18;6.0;;;6.0;;
45382;SDS011;42455;51.660;5.824;2023-06-10T19:51:25;6.0;;;6.0;;
45382;SDS011;42455;51.660;5.824;2023-06-10T19:56:31;7.0;;;6.0;;
45382;SDS011;42455;51.660;5.824;2023-06-10T20:01:37;7.0;;;6.0;;
45382;SDS011;42455;51.660;5.824;2023-06-10T20:06:43;7.0;;;6.0;;
45382;SDS011;42455;51.660;5.824;2023-06-10T20:11:50;7.0;;;6.0;;
45382;SDS011;42455;51.660;5.824;2023-06-10T20:16:56;7.0;;;6.0;;
45382;SDS011;42455;51.660;5.824;2023-06-10T20:22:02;7.0;;;6.5;;
45382;SDS011;42455;51.660;5.824;2023-06-10T20:27:08;7.0;;;6.0;;
45382;SDS011;42455;51.660;5.824;2023-06-10T20:32:14;6.0;;;6.0;;
45382;SDS011;42455;51.660;5.824;2023-06-10T20:37:21;6.0;;;6.0;;
45382;SDS011;42455;51.660;5.824;2023-06-10T20:42:27;7.0;;;6.0;;
45382;SDS011;42455;51.660;5.824;2023-06-10T20:47:33;7.0;;;6.0;;
45382;SDS011;42455;51.660;5.824;2023-06-10T20:52:39;7.0;;;6.0;;
45382;SDS011;42455;51.660;5.824;2023-06-10T20:57:46;7.0;;;6.0;;
45382;SDS011;42455;51.660;5.824;2023-06-10T21:02:52;6.0;;;6.0;;
45382;SDS011;42455;51.660;5.824;2023-06-10T21:07:58;6.0;;;6.0;;
45382;SDS011;42455;51.660;5.824;2023-06-10T21:13:04;7.0;;;6.0;;
45382;SDS011;42455;51.660;5.824;2023-06-10T21:18:11;6.0;;;6.0;;
45382;SDS011;42455;51.660;5.824;2023-06-10T21:23:17;6.0;;;6.0;;
45382;SDS011;42455;51.660;5.824;2023-06-10T21:28:23;6.0;;;6.0;;
45382;SDS011;42455;51.660;5.824;2023-06-10T21:33:29;6.0;;;6.0;;
45382;SDS011;42455;51.660;5.824;2023-06-10T21:38:35;7.0;;;6.0;;
45382;SDS011;42455;51.660;5.824;2023-06-10T21:43:42;6.0;;;6.0;;
45382;SDS011;42455;51.660;5.824;2023-06-10T21:48:48;7.0;;;6.0;;
45382;SDS011;42455;51.660;5.824;2023-06-10T21:53:54;7.0;;;6.0;;
45382;SDS011;42455;51.660;5.824;2023-06-10T21:59:00;7.0;;;6.0;;
45382;SDS011;42455;51.660;5.824;2023-06-10T22:04:05;7.0;;;6.0;;
45382;SDS011;42455;51.660;5.824;2023-06-10T22:09:12;6.0;;;6.0;;
45382;SDS011;42455;51.660;5.824;2023-06-10T22:14:18;7.0;;;6.0;;
45382;SDS011;42455;51.660;5.824;2023-06-10T22:19:24;7.0;;;6.0;;
45382;SDS011;42455;51.660;5.824;2023-06-10T22:24:30;8.0;;;7.0;;
45382;SDS011;42455;51.660;5.824;2023-06-10T22:29:37;7.0;;;7.0;;
45382;SDS011;42455;51.660;5.824;2023-06-10T22:39:49;8.0;;;7.0;;
45382;SDS011;42455;51.660;5.824;2023-06-10T22:44:55;8.0;;;7.0;;
45382;SDS011;42455;51.660;5.824;2023-06-10T22:50:01;8.0;;;7.0;;
45382;SDS011;42455;51.660;5.824;2023-06-10T22:55:08;9.0;;;7.0;;
45382;SDS011;42455;51.660;5.824;2023-06-10T23:00:15;8.0;;;7.0;;
45382;SDS011;42455;51.660;5.824;2023-06-10T23:05:20;8.0;;;7.0;;
45382;SDS011;42455;51.660;5.824;2023-06-10T23:10:26;8.0;;;7.0;;
45382;SDS011;42455;51.660;5.824;2023-06-10T23:15:32;8.0;;;7.0;;
45382;SDS011;42455;51.660;5.824;2023-06-10T23:20:39;8.0;;;7.0;;
45382;SDS011;42455;51.660;5.824;2023-06-10T23:25:45;8.0;;;7.0;;
45382;SDS011;42455;51.660;5.824;2023-06-10T23:30:51;8.0;;;7.0;;
45382;SDS011;42455;51.660;5.824;2023-06-10T23:35:57;8.0;;;7.0;;
45382;SDS011;42455;51.660;5.824;2023-06-10T23:41:03;8.0;;;7.0;;
45382;SDS011;42455;51.660;5.824;2023-06-10T23:46:10;8.0;;;7.0;;
45382;SDS011;42455;51.660;5.824;2023-06-10T23:51:16;8.0;;;7.0;;
45382;SDS011;42455;51.660;5.824;2023-06-10T23:56:22;8.0;;;7.0;;
